Time;durP1;ratioP1;P1;durP2;ratioP2;P2;SDS_P1;SDS_P2;PMS_P1;PMS_P2;Temp;Humidity;BMP_temperature;BMP_pressure;BME280_temperature;BME280_humidity;BME280_pressure;Samples;Min_cycle;Max_cycle;Signal;HPM_P1;HPM_P2
2023/01/05 00:01:32;;;;;;;26.67;19.98;;;9.60;99.90;;;;;;5055158;28;20049;-86
2023/01/05 00:03:58;;;;;;;24.27;20.65;;;9.60;99.90;;;;;;5053744;28;20453;-86
2023/01/05 00:06:23;;;;;;;26.85;20.85;;;9.50;99.90;;;;;;5054728;28;20056;-86
2023/01/05 00:08:49;;;;;;;27.40;21.98;;;9.50;99.90;;;;;;5055030;28;20197;-86
2023/01/05 00:22:29;;;;;;;33.55;25.27;;;9.50;99.90;;;;;;5054484;28;20032;-86
2023/01/05 00:24:56;;;;;;;34.85;25.80;;;9.60;99.90;;;;;;5054550;28;20476;-86
2023/01/05 00:27:22;;;;;;;35.80;26.38;;;9.50;99.90;;;;;;5054495;28;20032;-86
2023/01/05 00:29:47;;;;;;;34.08;26.33;;;9.40;99.90;;;;;;5053585;28;20389;-86
2023/01/05 00:32:13;;;;;;;34.70;25.17;;;9.40;99.90;;;;;;5054415;28;20039;-86
2023/01/05 00:34:39;;;;;;;29.38;23.88;;;9.40;99.90;;;;;;5053278;28;20028;-87
2023/01/05 00:37:04;;;;;;;30.80;24.08;;;9.30;99.90;;;;;;5053810;28;20029;-86
2023/01/05 00:39:30;;;;;;;29.25;23.60;;;9.40;99.90;;;;;;5069899;28;20405;-86
2023/01/05 00:41:56;;;;;;;30.08;23.05;;;9.40;99.90;;;;;;5054132;28;20429;-86
2023/01/05 00:44:21;;;;;;;29.33;24.23;;;9.40;99.90;;;;;;5054194;28;20025;-86
2023/01/05 00:46:47;;;;;;;33.15;23.60;;;9.50;99.90;;;;;;5054121;28;20040;-86
2023/01/05 00:49:12;;;;;;;30.30;23.15;;;9.50;99.90;;;;;;5054475;28;20028;-86
2023/01/05 00:51:38;;;;;;;27.73;22.80;;;9.50;99.90;;;;;;5053441;28;20568;-87
2023/01/05 00:54:03;;;;;;;29.05;22.52;;;9.60;99.90;;;;;;5053671;28;20033;-86
2023/01/05 00:56:29;;;;;;;26.40;20.27;;;9.60;99.90;;;;;;5054027;28;20028;-86
2023/01/05 00:58:55;;;;;;;23.80;19.08;;;9.50;99.90;;;;;;5053926;28;20078;-86
2023/01/05 01:01:20;;;;;;;19.40;16.38;;;9.60;99.90;;;;;;5053832;28;20029;-86
2023/01/05 01:03:46;;;;;;;20.83;17.35;;;9.70;99.90;;;;;;5054266;28;20021;-86
2023/01/05 01:06:12;;;;;;;20.40;16.50;;;9.70;99.90;;;;;;5053415;28;20481;-85
2023/01/05 01:08:38;;;;;;;18.63;15.07;;;9.70;99.90;;;;;;5053792;28;20017;-86
2023/01/05 01:11:06;;;;;;;18.05;15.23;;;9.70;99.90;;;;;;5053698;28;20677;-86
2023/01/05 01:13:32;;;;;;;18.25;14.82;;;9.80;99.90;;;;;;5053974;28;20098;-85
2023/01/05 01:16:04;;;;;;;20.10;15.80;;;9.70;99.90;;;;;;5053402;28;20067;-86
2023/01/05 01:18:30;;;;;;;18.88;15.07;;;9.70;99.90;;;;;;5053903;28;20021;-86
2023/01/05 01:20:56;;;;;;;18.92;15.45;;;9.80;99.90;;;;;;5053077;28;20420;-86
2023/01/05 01:23:21;;;;;;;18.83;15.65;;;9.80;99.90;;;;;;5053850;28;20047;-86
2023/01/05 01:25:47;;;;;;;18.63;15.35;;;9.80;99.90;;;;;;5051932;28;20029;-86
2023/01/05 01:28:12;;;;;;;20.17;15.85;;;9.80;99.90;;;;;;5053264;28;20031;-86
2023/01/05 01:30:38;;;;;;;18.75;16.02;;;9.80;99.90;;;;;;5053234;28;20033;-86
2023/01/05 01:33:04;;;;;;;19.60;15.85;;;9.80;99.90;;;;;;5053636;28;20567;-86
2023/01/05 01:35:30;;;;;;;21.15;16.15;;;9.80;99.90;;;;;;5052973;28;20025;-85
2023/01/05 01:37:55;;;;;;;19.10;16.30;;;9.80;99.90;;;;;;5053170;28;20032;-86
2023/01/05 01:40:21;;;;;;;18.77;15.25;;;9.80;99.90;;;;;;5053057;28;20516;-86
2023/01/05 01:42:46;;;;;;;18.88;16.23;;;9.70;99.90;;;;;;5053226;28;20053;-86
2023/01/05 01:45:21;;;;;;;17.90;14.90;;;9.70;99.90;;;;;;5052021;28;20025;-86
2023/01/05 01:47:57;;;;;;;19.42;15.90;;;9.70;99.90;;;;;;5052780;28;20048;-85
2023/01/05 01:50:33;;;;;;;19.80;15.68;;;9.80;99.90;;;;;;5052710;28;20045;-86
2023/01/05 01:53:14;;;;;;;21.70;16.40;;;9.80;99.90;;;;;;5052946;28;20663;-85
2023/01/05 01:55:40;;;;;;;20.33;14.73;;;9.80;99.90;;;;;;5052982;28;20029;-86
2023/01/05 01:58:10;;;;;;;18.77;15.18;;;9.80;99.90;;;;;;5052856;28;20029;-86
2023/01/05 02:00:38;;;;;;;19.90;14.82;;;9.80;99.90;;;;;;5052891;28;20027;-86
2023/01/05 02:03:04;;;;;;;19.40;14.73;;;9.80;99.90;;;;;;5052785;28;20033;-86
2023/01/05 02:05:32;;;;;;;18.45;14.40;;;9.90;99.90;;;;;;5052797;28;20032;-86
2023/01/05 02:07:59;;;;;;;19.15;14.95;;;9.80;99.90;;;;;;5052666;28;20078;-85
2023/01/05 02:10:39;;;;;;;17.05;14.15;;;9.90;99.90;;;;;;5052619;28;20044;-86
2023/01/05 02:13:21;;;;;;;17.95;14.20;;;9.80;99.90;;;;;;5052663;28;20104;-86
2023/01/05 02:16:03;;;;;;;18.05;14.27;;;9.90;99.90;;;;;;5051277;28;20020;-86
2023/01/05 02:18:56;;;;;;;16.55;13.88;;;9.90;99.90;;;;;;5052316;28;20025;-86
2023/01/05 02:21:40;;;;;;;16.25;13.52;;;9.90;99.90;;;;;;5052712;28;20036;-86
2023/01/05 02:24:09;;;;;;;18.05;13.98;;;9.90;99.90;;;;;;5052412;28;20028;-86
2023/01/05 02:26:52;;;;;;;16.13;13.70;;;10.00;99.90;;;;;;5052456;28;20428;-86
2023/01/05 02:29:45;;;;;;;17.48;13.75;;;9.90;99.90;;;;;;5052393;28;20090;-86
2023/01/05 02:32:32;;;;;;;15.82;14.13;;;10.00;99.90;;;;;;5052104;28;20079;-86
2023/01/05 02:35:12;;;;;;;16.83;14.18;;;10.00;99.90;;;;;;5052178;28;20489;-85
2023/01/05 02:37:47;;;;;;;17.17;13.93;;;10.00;99.90;;;;;;5051501;28;20845;-86
2023/01/05 02:40:18;;;;;;;16.70;13.73;;;10.00;99.90;;;;;;5052134;28;20020;-86
2023/01/05 02:42:46;;;;;;;20.25;14.20;;;9.90;99.90;;;;;;5051982;28;20389;-86
2023/01/05 02:45:15;;;;;;;15.23;13.02;;;9.90;99.90;;;;;;5052050;28;20025;-86
2023/01/05 02:47:42;;;;;;;19.15;14.45;;;9.90;99.90;;;;;;5051604;28;20027;-86
2023/01/05 02:50:33;;;;;;;17.02;13.43;;;9.90;99.90;;;;;;5052170;28;20491;-86
2023/01/05 02:53:02;;;;;;;15.13;13.23;;;9.90;99.90;;;;;;5051806;28;20501;-86
2023/01/05 02:55:45;;;;;;;18.55;13.18;;;10.00;99.90;;;;;;5051928;28;20477;-86
2023/01/05 02:58:18;;;;;;;16.83;13.10;;;10.00;99.90;;;;;;5052053;28;20036;-86
2023/01/05 03:00:51;;;;;;;15.90;13.30;;;10.00;99.90;;;;;;5051920;28;20025;-86
2023/01/05 03:03:35;;;;;;;16.25;13.40;;;10.00;99.90;;;;;;5051971;28;20053;-86
2023/01/05 03:06:10;;;;;;;16.10;13.68;;;10.00;99.90;;;;;;5051934;28;20033;-86
2023/01/05 03:08:42;;;;;;;19.20;15.80;;;10.10;99.90;;;;;;5051885;28;20481;-86
2023/01/05 03:14:11;;;;;;;24.85;19.17;;;10.00;99.90;;;;;;5051955;28;20483;-86
2023/01/05 03:16:38;;;;;;;23.30;18.83;;;9.90;99.90;;;;;;5051440;28;20110;-86
2023/01/05 03:36:05;;;;;;;21.85;17.77;;;10.00;99.90;;;;;;5051983;28;20036;-86
2023/01/05 03:38:36;;;;;;;25.30;20.58;;;9.90;99.90;;;;;;5051936;28;20111;-86
2023/01/05 03:41:05;;;;;;;23.98;19.83;;;9.90;99.90;;;;;;5051547;28;20505;-86
2023/01/05 03:43:35;;;;;;;26.15;20.48;;;9.90;99.90;;;;;;5051520;28;20433;-87
2023/01/05 03:46:13;;;;;;;25.33;20.20;;;9.90;99.90;;;;;;5049976;28;20017;-86
2023/01/05 03:48:39;;;;;;;26.52;19.83;;;9.90;99.90;;;;;;5051697;28;20029;-86
2023/01/05 03:51:05;;;;;;;26.48;20.23;;;9.90;99.90;;;;;;5055132;28;20044;-85
2023/01/05 03:53:31;;;;;;;26.52;20.92;;;9.90;99.90;;;;;;5055040;28;20435;-86
2023/01/05 03:55:56;;;;;;;25.67;21.70;;;9.90;99.90;;;;;;5054183;28;20025;-86
2023/01/05 03:58:22;;;;;;;28.33;22.52;;;9.90;99.90;;;;;;5054695;28;20021;-86
2023/01/05 04:00:48;;;;;;;27.30;22.70;;;9.90;99.90;;;;;;5055312;28;20056;-86
2023/01/05 04:03:13;;;;;;;27.52;21.63;;;9.90;99.90;;;;;;5055160;28;20036;-86
2023/01/05 04:05:39;;;;;;;28.20;22.05;;;9.90;99.90;;;;;;5054906;28;20025;-86
2023/01/05 04:08:05;;;;;;;28.08;20.98;;;9.90;99.90;;;;;;5054892;28;20052;-86
2023/01/05 04:10:31;;;;;;;27.40;21.60;;;9.90;99.90;;;;;;5054919;28;20546;-86
2023/01/05 04:12:56;;;;;;;27.65;22.85;;;9.80;99.90;;;;;;5054547;28;20025;-86
2023/01/05 04:15:22;;;;;;;28.38;22.95;;;9.60;99.90;;;;;;5054865;28;20029;-86
2023/01/05 04:17:48;;;;;;;28.38;23.10;;;9.70;99.90;;;;;;5054800;28;20040;-86
2023/01/05 04:20:13;;;;;;;28.35;22.27;;;9.70;99.90;;;;;;5054961;28;20025;-86
2023/01/05 04:22:39;;;;;;;27.77;22.55;;;9.60;99.90;;;;;;5053324;28;20033;-86
2023/01/05 04:25:06;;;;;;;29.48;22.30;;;9.70;99.90;;;;;;5054644;28;20021;-86
2023/01/05 04:27:31;;;;;;;25.85;21.27;;;9.70;99.90;;;;;;5052918;28;20505;-86
2023/01/05 04:29:57;;;;;;;25.98;22.23;;;9.70;99.90;;;;;;5054802;28;20049;-86
2023/01/05 04:32:23;;;;;;;27.52;22.23;;;9.70;99.90;;;;;;5053198;28;20087;-85
2023/01/05 04:34:48;;;;;;;28.38;21.50;;;9.60;99.90;;;;;;5054380;28;20481;-86
2023/01/05 04:37:14;;;;;;;27.73;22.08;;;9.70;99.90;;;;;;5054810;28;20458;-87
2023/01/05 04:39:40;;;;;;;30.55;21.95;;;9.80;99.90;;;;;;5054311;28;20095;-86
2023/01/05 04:42:05;;;;;;;27.63;21.60;;;9.70;99.90;;;;;;5053903;28;20031;-86
2023/01/05 04:44:31;;;;;;;28.27;21.23;;;9.70;99.90;;;;;;5052923;28;20021;-86
2023/01/05 04:46:56;;;;;;;25.95;20.77;;;9.80;99.90;;;;;;5054189;28;20028;-86
2023/01/05 04:49:22;;;;;;;25.55;21.02;;;9.80;99.90;;;;;;5054479;28;20036;-86
2023/01/05 04:51:48;;;;;;;26.70;21.58;;;9.80;99.90;;;;;;5053941;28;20049;-86
2023/01/05 04:54:13;;;;;;;25.42;18.85;;;9.80;99.90;;;;;;5053964;28;20029;-86
2023/01/05 04:56:39;;;;;;;17.35;15.45;;;9.80;99.90;;;;;;5053676;28;20033;-86
2023/01/05 04:59:04;;;;;;;16.83;14.15;;;9.90;99.90;;;;;;5054203;28;20101;-86
2023/01/05 05:01:30;;;;;;;16.98;14.18;;;9.90;99.90;;;;;;5052036;28;20505;-86
2023/01/05 05:03:56;;;;;;;15.90;13.32;;;9.90;99.90;;;;;;5054003;28;20277;-86
2023/01/05 05:06:21;;;;;;;19.63;15.52;;;9.90;99.90;;;;;;5053798;28;20516;-86
2023/01/05 05:08:47;;;;;;;17.80;14.57;;;9.90;99.90;;;;;;5053766;28;20032;-86
2023/01/05 05:11:13;;;;;;;19.65;14.68;;;9.90;99.90;;;;;;5053590;28;20040;-86
2023/01/05 05:13:38;;;;;;;16.55;13.45;;;9.90;99.90;;;;;;5053618;28;20029;-86
2023/01/05 05:16:04;;;;;;;16.30;12.95;;;9.90;99.90;;;;;;5053624;28;20381;-86
2023/01/05 05:18:30;;;;;;;16.02;13.70;;;9.90;99.90;;;;;;5053805;28;20040;-86
2023/01/05 05:20:55;;;;;;;17.17;13.02;;;9.90;99.90;;;;;;5053658;28;20029;-86
2023/01/05 05:23:21;;;;;;;17.50;13.13;;;9.90;99.90;;;;;;5053503;28;20033;-86
2023/01/05 05:25:50;;;;;;;16.45;13.10;;;9.90;99.90;;;;;;5052995;28;20142;-86
2023/01/05 05:28:17;;;;;;;19.20;13.23;;;9.90;99.90;;;;;;5053645;28;20024;-86
2023/01/05 05:30:42;;;;;;;15.73;12.13;;;9.90;99.90;;;;;;5053193;28;20074;-85
2023/01/05 05:33:08;;;;;;;13.35;11.85;;;10.00;99.90;;;;;;5053295;28;20108;-86
2023/01/05 05:35:34;;;;;;;14.32;11.32;;;10.00;99.90;;;;;;5053785;28;20082;-87
2023/01/05 05:38:00;;;;;;;16.35;11.40;;;10.00;99.90;;;;;;5053293;28;20035;-86
2023/01/05 05:40:27;;;;;;;15.80;11.60;;;10.00;99.90;;;;;;5051625;28;20032;-86
2023/01/05 05:42:53;;;;;;;18.42;12.80;;;9.80;99.90;;;;;;5052958;28;20032;-86
2023/01/05 05:45:18;;;;;;;16.20;12.20;;;9.90;99.90;;;;;;5053189;28;20120;-86
2023/01/05 05:47:44;;;;;;;17.63;12.70;;;9.90;99.90;;;;;;5053203;28;20120;-86
2023/01/05 05:50:10;;;;;;;15.00;11.77;;;9.90;99.90;;;;;;5052945;28;20059;-85
2023/01/05 05:52:35;;;;;;;14.30;11.93;;;9.90;99.90;;;;;;5052882;28;20564;-86
2023/01/05 05:55:01;;;;;;;14.70;11.80;;;9.90;99.90;;;;;;5052320;28;20071;-86
2023/01/05 05:57:27;;;;;;;16.30;11.95;;;10.00;99.90;;;;;;5053087;28;20029;-85
2023/01/05 05:59:52;;;;;;;13.32;11.90;;;10.00;99.90;;;;;;5052915;28;20040;-86
2023/01/05 06:02:18;;;;;;;14.80;12.00;;;9.90;99.90;;;;;;5052748;28;20485;-86
2023/01/05 06:04:44;;;;;;;15.48;12.77;;;9.90;99.90;;;;;;5052811;28;20082;-85
2023/01/05 06:07:10;;;;;;;17.25;13.07;;;10.00;99.90;;;;;;5052734;28;20025;-86
2023/01/05 06:09:35;;;;;;;15.43;12.10;;;10.00;99.90;;;;;;5052213;28;20028;-86
2023/01/05 06:12:01;;;;;;;17.98;13.02;;;9.90;99.90;;;;;;5052176;28;20025;-86
2023/01/05 06:14:27;;;;;;;17.65;13.18;;;10.00;99.90;;;;;;5052338;28;20029;-85
2023/01/05 06:16:52;;;;;;;16.77;12.13;;;10.00;99.90;;;;;;5051778;28;20032;-85
2023/01/05 06:19:18;;;;;;;16.67;11.85;;;9.90;99.90;;;;;;5052106;28;20098;-88
2023/01/05 06:21:43;;;;;;;16.17;11.50;;;10.00;99.90;;;;;;5052419;28;20028;-89
2023/01/05 06:24:09;;;;;;;13.68;11.20;;;10.00;99.90;;;;;;5052377;28;20025;-88
2023/01/05 06:26:35;;;;;;;15.30;11.77;;;9.90;99.90;;;;;;5052602;28;20025;-88
2023/01/05 06:29:01;;;;;;;14.00;11.55;;;10.00;99.90;;;;;;5051762;28;20048;-89
2023/01/05 06:31:26;;;;;;;16.38;11.88;;;10.00;99.90;;;;;;5052660;28;20049;-89
2023/01/05 06:33:52;;;;;;;18.60;12.40;;;10.10;99.90;;;;;;5052985;28;20025;-90
2023/01/05 06:36:18;;;;;;;15.30;11.70;;;10.00;99.90;;;;;;5053066;28;20037;-88
2023/01/05 06:38:43;;;;;;;18.13;13.80;;;10.00;99.90;;;;;;5052518;28;20021;-88
2023/01/05 06:41:09;;;;;;;18.25;12.02;;;10.00;99.90;;;;;;5052538;28;20527;-89
2023/01/05 06:43:35;;;;;;;19.10;12.30;;;9.90;99.90;;;;;;5051288;28;20035;-88
2023/01/05 06:46:00;;;;;;;21.95;14.30;;;9.90;99.90;;;;;;5051879;28;20025;-88
2023/01/05 06:48:26;;;;;;;20.55;13.18;;;9.90;99.90;;;;;;5051937;28;20100;-88
2023/01/05 06:50:51;;;;;;;15.77;12.27;;;9.90;99.90;;;;;;5050465;28;20036;-88
2023/01/05 06:53:17;;;;;;;15.13;12.40;;;10.00;99.90;;;;;;5051939;28;20112;-88
2023/01/05 06:55:43;;;;;;;17.15;13.32;;;10.00;99.90;;;;;;5050753;28;20087;-88
2023/01/05 06:58:09;;;;;;;17.60;13.35;;;10.10;99.90;;;;;;5052020;28;20183;-88
2023/01/05 07:00:35;;;;;;;17.17;12.63;;;10.10;99.90;;;;;;5050781;28;20032;-88
2023/01/05 07:03:00;;;;;;;17.60;12.30;;;10.10;99.90;;;;;;5034336;28;20029;-88
2023/01/05 07:05:26;;;;;;;16.95;12.23;;;10.20;99.90;;;;;;5050981;28;20017;-84
2023/01/05 07:07:52;;;;;;;19.13;13.52;;;10.20;99.90;;;;;;5050678;28;20036;-85
2023/01/05 07:10:17;;;;;;;17.00;12.68;;;10.20;99.90;;;;;;5051659;28;20044;-85
2023/01/05 07:12:43;;;;;;;18.48;13.60;;;10.30;99.90;;;;;;5050826;28;20044;-85
2023/01/05 07:15:09;;;;;;;19.80;13.15;;;10.40;99.90;;;;;;5051911;28;20100;-85
2023/01/05 07:17:35;;;;;;;18.55;14.40;;;10.60;99.90;;;;;;5051644;28;20112;-85
2023/01/05 07:20:02;;;;;;;20.77;13.90;;;10.50;99.90;;;;;;5051448;28;20112;-84
2023/01/05 07:22:29;;;;;;;17.58;13.13;;;10.40;99.90;;;;;;5050618;28;20025;-85
2023/01/05 07:24:56;;;;;;;21.83;14.18;;;10.40;99.90;;;;;;5054024;28;20033;-85
2023/01/05 07:27:21;;;;;;;18.80;14.13;;;10.30;99.90;;;;;;5056062;28;20024;-85
2023/01/05 07:29:47;;;;;;;19.48;14.20;;;10.40;99.90;;;;;;5056844;28;20105;-86
2023/01/05 07:32:13;;;;;;;19.27;14.05;;;10.40;99.90;;;;;;5054457;28;20497;-83
2023/01/05 07:34:39;;;;;;;19.80;13.98;;;10.50;99.90;;;;;;5055878;28;20025;-86
2023/01/05 07:37:04;;;;;;;21.67;15.15;;;10.40;99.90;;;;;;5054840;28;20041;-87
2023/01/05 07:39:30;;;;;;;20.13;15.07;;;10.40;99.90;;;;;;5054756;28;20040;-87
2023/01/05 07:41:56;;;;;;;20.73;14.45;;;10.40;99.90;;;;;;5055554;28;20473;-87
2023/01/05 07:44:22;;;;;;;21.75;15.18;;;10.50;99.90;;;;;;5055574;28;20068;-88
2023/01/05 07:46:47;;;;;;;21.42;15.45;;;10.40;99.90;;;;;;5055249;28;20056;-86
2023/01/05 07:49:14;;;;;;;22.40;15.88;;;10.40;99.90;;;;;;5054418;28;20032;-86
2023/01/05 07:51:40;;;;;;;22.55;16.35;;;10.40;99.90;;;;;;5054077;28;20140;-85
2023/01/05 07:54:05;;;;;;;22.33;16.58;;;10.20;99.90;;;;;;5054686;28;20100;-85
2023/01/05 07:56:31;;;;;;;20.73;16.02;;;10.30;99.90;;;;;;5055598;28;20025;-85
2023/01/05 07:58:57;;;;;;;25.38;17.30;;;10.40;99.90;;;;;;5055636;28;20472;-85
2023/01/05 08:01:23;;;;;;;21.75;16.67;;;10.50;99.90;;;;;;5043847;28;20078;-84
2023/01/05 08:03:49;;;;;;;21.42;16.17;;;10.50;99.90;;;;;;5054030;28;20120;-85
2023/01/05 08:06:17;;;;;;;23.75;15.63;;;10.50;99.90;;;;;;5054349;28;20110;-86
2023/01/05 08:08:43;;;;;;;20.30;15.63;;;10.50;99.90;;;;;;5054386;28;20060;-85
2023/01/05 08:11:10;;;;;;;20.00;15.68;;;10.60;99.90;;;;;;5054585;28;20393;-84
2023/01/05 08:16:21;;;;;;;20.15;15.30;;;10.60;99.90;;;;;;5055259;28;20098;-86
2023/01/05 08:18:46;;;;;;;19.85;15.18;;;10.70;99.90;;;;;;5052418;28;20028;-85
2023/01/05 08:21:12;;;;;;;19.88;15.75;;;10.70;99.90;;;;;;5054263;28;20488;-84
2023/01/05 08:23:38;;;;;;;21.08;16.25;;;10.70;99.90;;;;;;5054896;28;20118;-84
2023/01/05 08:26:06;;;;;;;20.38;15.35;;;10.70;99.90;;;;;;5053527;28;20090;-85
2023/01/05 08:28:34;;;;;;;21.95;15.98;;;10.80;99.90;;;;;;5054708;28;20025;-85
2023/01/05 08:31:05;;;;;;;22.05;15.98;;;10.80;99.90;;;;;;5054588;28;20493;-85
2023/01/05 08:33:31;;;;;;;20.23;15.30;;;10.80;99.90;;;;;;5054873;28;20039;-85
2023/01/05 08:35:56;;;;;;;20.20;15.23;;;10.80;99.90;;;;;;5053090;28;20025;-85
2023/01/05 08:38:23;;;;;;;21.23;15.88;;;10.80;99.90;;;;;;5054404;28;20033;-85
2023/01/05 08:40:48;;;;;;;21.95;16.55;;;10.70;99.90;;;;;;5054479;28;20036;-85
2023/01/05 08:43:14;;;;;;;20.00;15.68;;;10.80;99.90;;;;;;5054475;28;20029;-85
2023/01/05 08:45:40;;;;;;;19.33;15.10;;;10.80;99.90;;;;;;5055271;28;20112;-84
2023/01/05 08:48:06;;;;;;;21.23;15.35;;;10.70;99.90;;;;;;5054185;28;20111;-85
2023/01/05 08:50:32;;;;;;;21.05;15.00;;;10.60;99.90;;;;;;5053721;28;20112;-85
2023/01/05 08:52:57;;;;;;;21.33;16.33;;;10.70;99.90;;;;;;5053771;28;20092;-84
2023/01/05 08:55:23;;;;;;;20.63;15.75;;;10.60;99.90;;;;;;5054101;28;20035;-85
2023/01/05 08:57:49;;;;;;;22.20;16.08;;;10.70;99.90;;;;;;5054272;28;20032;-84
2023/01/05 09:00:20;;;;;;;20.90;15.20;;;10.60;99.90;;;;;;5053793;28;20025;-84
2023/01/05 09:02:46;;;;;;;19.25;15.27;;;10.70;99.90;;;;;;5053540;28;20085;-84
2023/01/05 09:05:12;;;;;;;22.48;15.93;;;10.70;99.90;;;;;;5053956;28;20085;-85
2023/01/05 09:07:38;;;;;;;20.83;16.45;;;10.80;99.90;;;;;;5054139;28;20061;-85
2023/01/05 09:10:05;;;;;;;19.90;16.00;;;10.70;99.90;;;;;;5053641;28;20029;-84
2023/01/05 09:12:31;;;;;;;21.65;16.08;;;10.90;99.90;;;;;;5053667;28;20037;-85
2023/01/05 09:14:56;;;;;;;21.30;16.15;;;11.00;99.90;;;;;;5053604;28;20032;-85
2023/01/05 09:17:22;;;;;;;18.15;14.23;;;11.10;99.90;;;;;;5053686;28;20040;-85
2023/01/05 09:19:47;;;;;;;20.02;15.50;;;11.30;99.90;;;;;;5053438;28;20031;-85
2023/01/05 09:22:13;;;;;;;20.13;15.02;;;11.20;99.90;;;;;;5053494;28;20028;-85
2023/01/05 09:24:39;;;;;;;19.20;14.90;;;11.30;99.90;;;;;;5053874;28;20025;-85
2023/01/05 09:27:06;;;;;;;20.85;15.63;;;11.10;99.90;;;;;;5053432;28;20025;-85
2023/01/05 09:29:32;;;;;;;19.00;15.43;;;11.30;99.90;;;;;;5053158;28;20033;-84
2023/01/05 09:31:57;;;;;;;19.70;14.48;;;11.40;99.90;;;;;;5052964;28;20037;-84
2023/01/05 09:34:23;;;;;;;21.40;15.38;;;11.10;99.90;;;;;;5053300;28;20025;-85
2023/01/05 09:36:48;;;;;;;18.88;15.25;;;11.20;99.90;;;;;;5053248;28;20083;-84
2023/01/05 09:39:14;;;;;;;21.25;16.30;;;11.30;99.90;;;;;;5053273;28;20404;-85
2023/01/05 09:41:51;;;;;;;22.48;17.13;;;11.50;99.90;;;;;;5053288;28;20029;-85
2023/01/05 09:44:29;;;;;;;19.63;15.43;;;11.60;99.90;;;;;;5053391;28;20029;-85
2023/01/05 09:47:03;;;;;;;22.63;18.15;;;11.60;99.90;;;;;;5052067;28;20102;-85
2023/01/05 09:49:31;;;;;;;21.98;16.70;;;11.70;99.90;;;;;;5053389;28;20025;-85
2023/01/05 09:52:00;;;;;;;22.13;18.38;;;11.80;99.90;;;;;;5052817;28;20068;-84
2023/01/05 09:54:28;;;;;;;26.38;19.50;;;11.80;99.90;;;;;;5052688;28;20025;-85
2023/01/05 09:56:56;;;;;;;24.52;18.45;;;11.80;99.90;;;;;;5053090;28;20215;-85
2023/01/05 09:59:24;;;;;;;27.40;18.85;;;11.70;99.90;;;;;;5052649;28;20025;-85
2023/01/05 10:01:53;;;;;;;23.83;19.00;;;11.80;99.90;;;;;;5052464;28;20028;-85
2023/01/05 10:04:24;;;;;;;28.52;20.80;;;11.90;99.90;;;;;;5052617;28;20036;-84
2023/01/05 10:06:58;;;;;;;25.75;20.65;;;12.10;99.90;;;;;;5053084;28;20029;-85
2023/01/05 10:09:30;;;;;;;26.70;20.30;;;12.10;99.90;;;;;;5052492;28;20525;-85
2023/01/05 10:15:06;;;;;;;29.30;20.58;;;12.00;99.90;;;;;;5052479;28;20071;-85
2023/01/05 10:17:34;;;;;;;26.02;21.15;;;11.90;99.90;;;;;;5052167;28;20572;-85
2023/01/05 10:20:00;;;;;;;28.45;22.17;;;12.00;99.90;;;;;;5052391;28;20047;-85
2023/01/05 10:22:35;;;;;;;30.30;22.35;;;11.90;99.90;;;;;;5052847;28;20021;-85
2023/01/05 10:25:32;;;;;;;29.77;20.85;;;12.00;99.90;;;;;;5052524;28;20110;-85
2023/01/05 10:28:15;;;;;;;26.23;20.58;;;11.90;99.90;;;;;;5051899;28;20120;-85
2023/01/05 10:31:00;;;;;;;26.50;20.17;;;11.90;99.90;;;;;;5051949;28;20079;-85
2023/01/05 10:33:38;;;;;;;27.33;20.10;;;11.90;99.90;;;;;;5052541;28;20021;-84
2023/01/05 10:36:21;;;;;;;24.33;19.50;;;11.90;99.90;;;;;;5052475;28;20063;-85
2023/01/05 10:39:26;;;;;;;24.80;19.27;;;12.00;99.90;;;;;;5052293;28;20104;-85
2023/01/05 10:42:06;;;;;;;21.58;17.27;;;12.10;99.90;;;;;;5052307;28;20036;-85
2023/01/05 10:44:53;;;;;;;21.23;15.88;;;12.20;99.90;;;;;;5051795;28;20033;-84
2023/01/05 10:47:21;;;;;;;21.25;16.63;;;12.20;99.90;;;;;;5052021;28;20385;-85
2023/01/05 10:49:47;;;;;;;18.33;15.48;;;12.10;99.90;;;;;;5052312;28;20094;-85
2023/01/05 10:52:16;;;;;;;21.25;17.30;;;12.10;99.90;;;;;;5051636;28;20504;-84
2023/01/05 10:54:54;;;;;;;19.83;15.80;;;12.30;99.90;;;;;;5052228;28;20026;-84
2023/01/05 10:57:39;;;;;;;16.80;14.35;;;12.30;99.90;;;;;;5052253;28;20044;-85
2023/01/05 11:00:15;;;;;;;17.75;14.45;;;12.40;99.90;;;;;;5056985;28;20048;-85
2023/01/05 11:02:49;;;;;;;18.83;14.00;;;12.40;99.90;;;;;;5058866;28;20090;-84
2023/01/05 11:05:26;;;;;;;16.45;13.00;;;12.40;99.90;;;;;;5058815;28;20380;-85
2023/01/05 11:07:57;;;;;;;15.70;13.23;;;12.40;99.90;;;;;;5058441;28;20025;-85
2023/01/05 11:10:31;;;;;;;14.77;12.38;;;12.50;99.90;;;;;;5058899;28;20063;-85
2023/01/05 11:13:19;;;;;;;15.18;12.48;;;12.60;99.90;;;;;;5058695;28;20029;-85
2023/01/05 11:15:53;;;;;;;15.02;11.55;;;12.50;99.90;;;;;;5058414;28;20035;-85
2023/01/05 11:18:43;;;;;;;16.00;12.77;;;12.60;99.90;;;;;;5058461;28;20393;-85
2023/01/05 11:21:10;;;;;;;12.48;11.13;;;12.60;99.90;;;;;;5058463;28;20025;-85
2023/01/05 11:23:43;;;;;;;15.38;11.90;;;12.80;99.90;;;;;;5058400;28;20037;-85
2023/01/05 11:26:16;;;;;;;13.00;10.70;;;12.90;99.90;;;;;;5058387;28;20452;-84
2023/01/05 11:29:07;;;;;;;12.90;10.75;;;12.90;99.90;;;;;;5058225;28;20025;-85
2023/01/05 11:32:09;;;;;;;13.70;11.60;;;12.80;99.90;;;;;;5058217;28;20040;-85
2023/01/05 11:34:50;;;;;;;15.38;13.25;;;12.90;99.90;;;;;;5016347;28;20038;-84
2023/01/05 11:37:29;;;;;;;12.93;11.00;;;12.70;99.90;;;;;;5016416;28;20041;-85
2023/01/05 11:40:01;;;;;;;14.60;11.85;;;12.80;99.90;;;;;;5016399;28;20026;-85
2023/01/05 11:42:28;;;;;;;13.93;12.30;;;12.90;99.90;;;;;;5016083;28;20561;-85
2023/01/05 11:45:00;;;;;;;13.07;11.65;;;13.00;99.90;;;;;;5016184;28;20030;-83
2023/01/05 11:47:47;;;;;;;14.18;12.60;;;13.10;99.90;;;;;;5016142;28;20029;-85
2023/01/05 11:50:15;;;;;;;13.32;11.57;;;12.80;99.90;;;;;;4999620;28;20034;-85
2023/01/05 11:52:43;;;;;;;12.13;10.93;;;13.20;99.90;;;;;;5016189;28;20073;-85
2023/01/05 11:55:36;;;;;;;9.85;8.85;;;13.10;99.90;;;;;;5016254;28;20100;-85
2023/01/05 11:58:23;;;;;;;10.63;9.30;;;13.00;99.90;;;;;;5014195;28;20026;-86
2023/01/05 12:00:57;;;;;;;9.48;8.32;;;13.00;99.90;;;;;;5016050;28;20030;-85
2023/01/05 12:03:41;;;;;;;10.23;9.23;;;13.10;99.90;;;;;;5016493;28;20041;-85
2023/01/05 12:06:34;;;;;;;9.00;8.10;;;13.10;99.90;;;;;;5016035;28;20037;-84
2023/01/05 12:09:27;;;;;;;10.18;9.18;;;13.30;99.90;;;;;;5016709;28;20486;-86
2023/01/05 12:12:17;;;;;;;44.80;40.17;;;13.30;99.90;;;;;;5034147;28;20052;-85
2023/01/05 12:14:42;;;;;;;13.90;12.50;;;13.30;99.90;;;;;;5035152;28;20032;-85
2023/01/05 12:17:21;;;;;;;10.98;9.98;;;13.50;99.90;;;;;;5034828;28;20038;-86
2023/01/05 12:19:46;;;;;;;10.73;9.73;;;13.50;99.90;;;;;;5034883;28;20545;-85
2023/01/05 12:22:12;;;;;;;12.30;11.13;;;14.10;99.90;;;;;;5035103;28;20100;-85
2023/01/05 12:25:21;;;;;;;9.43;8.52;;;14.70;99.90;;;;;;5034942;28;20033;-86
2023/01/05 12:27:58;;;;;;;9.80;8.90;;;14.80;99.90;;;;;;4972845;28;20045;-85
2023/01/05 12:30:24;;;;;;;10.30;9.40;;;14.70;99.90;;;;;;4974045;28;20505;-86
2023/01/05 12:33:22;;;;;;;9.60;8.70;;;14.60;99.90;;;;;;4973669;28;20030;-86
2023/01/05 12:36:00;;;;;;;10.05;9.00;;;14.30;99.90;;;;;;4973767;28;20034;-86
2023/01/05 12:38:35;;;;;;;8.50;7.70;;;13.90;99.90;;;;;;4973654;28;20070;-85
2023/01/05 12:41:09;;;;;;;8.18;7.45;;;14.00;99.90;;;;;;4973382;28;20102;-86
2023/01/05 12:44:03;;;;;;;6.03;5.53;;;14.90;99.90;;;;;;4974019;28;20130;-86
2023/01/05 12:46:55;;;;;;;5.57;5.07;;;14.90;99.90;;;;;;4973903;28;20027;-85
2023/01/05 12:49:29;;;;;;;5.75;5.25;;;14.60;99.90;;;;;;4973390;28;20054;-86
2023/01/05 12:52:06;;;;;;;4.75;4.28;;;14.50;99.90;;;;;;4973035;28;20095;-86
2023/01/05 12:55:10;;;;;;;4.82;4.43;;;14.60;99.90;;;;;;4987869;28;20054;-85
2023/01/05 12:57:41;;;;;;;5.72;4.20;;;14.60;99.90;;;;;;4902208;29;20583;-86
2023/01/05 13:00:13;;;;;;;4.18;3.80;;;14.40;99.90;;;;;;4896419;29;20044;-85
2023/01/05 13:02:52;;;;;;;4.47;3.55;;;14.30;99.90;;;;;;4912379;29;20063;-86
2023/01/05 13:05:33;;;;;;;3.83;2.47;;;14.20;99.90;;;;;;4954098;29;20150;-86
2023/01/05 13:08:08;;;;;;;3.33;2.67;;;14.00;99.90;;;;;;4953962;29;20027;-86
2023/01/05 13:10:55;;;;;;;2.70;2.50;;;13.80;99.90;;;;;;4956907;28;20558;-84
2023/01/05 13:13:31;;;;;;;2.78;2.40;;;13.70;99.90;;;;;;4953598;29;20050;-84
2023/01/05 13:16:05;;;;;;;2.63;2.40;;;13.70;99.90;;;;;;4954268;29;20419;-85
2023/01/05 13:18:35;;;;;;;2.45;2.10;;;13.70;99.90;;;;;;4953488;29;20112;-85
2023/01/05 13:21:04;;;;;;;2.20;2.00;;;13.50;99.90;;;;;;4953583;29;20070;-86
2023/01/05 13:23:54;;;;;;;2.53;2.03;;;13.30;99.90;;;;;;4952657;29;20030;-86
2023/01/05 13:26:23;;;;;;;2.83;1.40;;;13.30;99.90;;;;;;4953514;29;20106;-84